Observation data for Hart on 12/08/2019      Previous  Date       Current Mesonet Observations  Soil Data  Daily Summary Page  Observations in Plain Language
KHRS 080600Z 22006KT 06/02 A2998 RMK A01 T00560023  RH  081%=      5-min Rain = 0
KHRS 080605Z 22006KT 06/02 A2998 RMK A01 T00610024  RH  078%=      5-min Rain = 0
KHRS 080610Z 22007KT 06/02 A2998 RMK A01 T00630024  RH  077%=      5-min Rain = 0
KHRS 080615Z 23009KT 06/02 A2998 RMK A01 T00630024  RH  077%=      5-min Rain = 0
KHRS 080620Z 23009KT 07/03 A2998 RMK A01 T00650025  RH  077%=      5-min Rain = 0
KHRS 080625Z 23010KT 07/03 A2998 RMK A01 T00700026  RH  075%=      5-min Rain = 0
KHRS 080630Z 24009KT 07/03 A2998 RMK A01 T00720026  RH  074%=      5-min Rain = 0
KHRS 080635Z 24008KT 07/03 A2997 RMK A01 T00710027  RH  074%=      5-min Rain = 0
KHRS 080640Z 24008KT 07/03 A2997 RMK A01 T00720028  RH  074%=      5-min Rain = 0
KHRS 080645Z 24010KT 08/03 A2997 RMK A01 T00750029  RH  074%=      5-min Rain = 0
KHRS 080650Z 24011KT 08/03 A2996 RMK A01 T00810030  RH  071%=      5-min Rain = 0
KHRS 080655Z 24010KT 08/03 A2995 RMK A01 T00830030  RH  070%=      5-min Rain = 0
KHRS 080700Z 24010KT 08/03 A2995 RMK A01 T00820029  RH  070%=      5-min Rain = 0
KHRS 080705Z 24011KT 08/03 A2995 RMK A01 T00810029  RH  071%=      5-min Rain = 0
KHRS 080710Z 24010KT 08/03 A2995 RMK A01 T00800029  RH  072%=      5-min Rain = 0
KHRS 080715Z 24011G16KT 08/03 A2994 RMK A01 T00800030  RH  072%=      5-min Rain = 0
KHRS 080720Z 24013KT 08/03 A2994 RMK A01 T00800030  RH  072%=      5-min Rain = 0
KHRS 080725Z 24013G19KT 08/03 A2994 RMK A01 T00820031  RH  071%=      5-min Rain = 0
KHRS 080730Z 24013KT 08/03 A2994 RMK A01 T00840032  RH  071%=      5-min Rain = 0
KHRS 080735Z 24013G18KT 09/03 A2994 RMK A01 T00850032  RH  070%=      5-min Rain = 0
KHRS 080740Z 24014G20KT 09/03 A2994 RMK A01 T00850032  RH  070%=      5-min Rain = 0
KHRS 080745Z 25016KT 09/03 A2994 RMK A01 T00850032  RH  070%=      5-min Rain = 0
KHRS 080750Z 25016KT 08/03 A2993 RMK A01 T00840032  RH  070%=      5-min Rain = 0
KHRS 080755Z 25017KT 09/03 A2993 RMK A01 T00850032  RH  070%=      5-min Rain = 0
KHRS 080800Z 25015G20KT 09/03 A2994 RMK A01 T00860033  RH  070%=      5-min Rain = 0
KHRS 080805Z 24015KT 09/03 A2994 RMK A01 T00860033  RH  070%=      5-min Rain = 0
KHRS 080810Z 24013G19KT 08/03 A2994 RMK A01 T00830032  RH  071%=      5-min Rain = 0
KHRS 080815Z 24014KT 08/03 A2994 RMK A01 T00810032  RH  072%=      5-min Rain = 0
KHRS 080820Z 24014KT 08/03 A2994 RMK A01 T00800032  RH  073%=      5-min Rain = 0
KHRS 080825Z 24015KT 08/03 A2994 RMK A01 T00790032  RH  073%=      5-min Rain = 0
KHRS 080830Z 24013KT 08/03 A2994 RMK A01 T00770031  RH  074%=      5-min Rain = 0
KHRS 080835Z 24013KT 07/03 A2994 RMK A01 T00740031  RH  075%=      5-min Rain = 0
KHRS 080840Z 24013KT 07/03 A2994 RMK A01 T00740031  RH  075%=      5-min Rain = 0
KHRS 080845Z 24012KT 08/03 A2994 RMK A01 T00750031  RH  075%=      5-min Rain = 0
KHRS 080850Z 24012KT 08/03 A2994 RMK A01 T00750032  RH  075%=      5-min Rain = 0
KHRS 080855Z 24011KT 08/03 A2994 RMK A01 T00750032  RH  075%=      5-min Rain = 0
KHRS 080900Z 24013KT 08/03 A2994 RMK A01 T00770033  RH  075%=      5-min Rain = 0
KHRS 080905Z 23010G15KT 08/03 A2994 RMK A01 T00780033  RH  074%=      5-min Rain = 0
KHRS 080910Z 23012KT 08/03 A2993 RMK A01 T00790034  RH  074%=      5-min Rain = 0
KHRS 080915Z 23013KT 08/04 A2994 RMK A01 T00810035  RH  074%=      5-min Rain = 0
KHRS 080920Z 23012G18KT 08/04 A2994 RMK A01 T00810035  RH  074%=      5-min Rain = 0
KHRS 080925Z 23010KT 08/04 A2994 RMK A01 T00820035  RH  073%=      5-min Rain = 0
KHRS 080930Z 23011KT 08/04 A2993 RMK A01 T00830035  RH  073%=      5-min Rain = 0
KHRS 080935Z 23012KT 09/04 A2993 RMK A01 T00850035  RH  072%=      5-min Rain = 0
KHRS 080940Z 23012KT 09/04 A2993 RMK A01 T00860035  RH  071%=      5-min Rain = 0
KHRS 080945Z 23013G18KT 09/04 A2993 RMK A01 T00850035  RH  072%=      5-min Rain = 0
KHRS 080950Z 23014KT 09/04 A2993 RMK A01 T00860035  RH  071%=      5-min Rain = 0
KHRS 080955Z 23014KT 09/04 A2992 RMK A01 T00870035  RH  070%=      5-min Rain = 0
KHRS 081000Z 23013KT 09/04 A2992 RMK A01 T00880035  RH  070%=      5-min Rain = 0
KHRS 081005Z 23013KT 09/03 A2991 RMK A01 T00890034  RH  070%=      5-min Rain = 0
KHRS 081010Z 23013KT 09/03 A2991 RMK A01 T00880034  RH  070%=      5-min Rain = 0
KHRS 081015Z 23013KT 09/03 A2991 RMK A01 T00900034  RH  069%=      5-min Rain = 0
KHRS 081020Z 23013KT 09/03 A2991 RMK A01 T00910033  RH  068%=      5-min Rain = 0
KHRS 081025Z 23012G17KT 09/03 A299 RMK A01 T00940032  RH  066%=      5-min Rain = 0
KHRS 081030Z 23012KT 10/03 A299 RMK A01 T00970032  RH  065%=      5-min Rain = 0
KHRS 081035Z 23012KT 10/03 A299 RMK A01 T00990031  RH  064%=      5-min Rain = 0
KHRS 081040Z 23013KT 10/03 A2989 RMK A01 T01020031  RH  062%=      5-min Rain = 0
KHRS 081045Z 23014KT 10/03 A2989 RMK A01 T01030031  RH  062%=      5-min Rain = 0
KHRS 081050Z 23015G21KT 10/03 A2989 RMK A01 T01040031  RH  061%=      5-min Rain = 0
KHRS 081055Z 24015G20KT 11/03 A2989 RMK A01 T01050031  RH  061%=      5-min Rain = 0
KHRS 081100Z 24015KT 11/03 A2989 RMK A01 T01060031  RH  061%=      5-min Rain = 0
KHRS 081105Z 25016KT 11/03 A2989 RMK A01 T01060031  RH  060%=      5-min Rain = 0
KHRS 081110Z 25017G22KT 11/03 A2989 RMK A01 T01070030  RH  060%=      5-min Rain = 0
KHRS 081115Z 26016G21KT 11/03 A2989 RMK A01 T01070031  RH  060%=      5-min Rain = 0
KHRS 081120Z 25017G23KT 10/03 A2989 RMK A01 T01040032  RH  061%=      5-min Rain = 0
KHRS 081125Z 24017G22KT 10/03 A2989 RMK A01 T01040032  RH  062%=      5-min Rain = 0
KHRS 081130Z 24017KT 10/03 A2989 RMK A01 T01020032  RH  062%=      5-min Rain = 0
KHRS 081135Z 24016G21KT 10/03 A2989 RMK A01 T01020032  RH  063%=      5-min Rain = 0
KHRS 081140Z 24014KT 10/03 A2989 RMK A01 T01020032  RH  063%=      5-min Rain = 0
KHRS 081145Z 25014KT 10/03 A299 RMK A01 T01020032  RH  063%=      5-min Rain = 0
KHRS 081150Z 26013G18KT 10/03 A299 RMK A01 T01000033  RH  064%=      5-min Rain = 0
KHRS 081155Z 29010KT 10/03 A2991 RMK A01 T00980033  RH  065%=      5-min Rain = 0
KHRS 081200Z 26011KT 10/03 A2991 RMK A01 T00970032  RH  065%=      5-min Rain = 0
KHRS 081205Z 25013KT 10/03 A299 RMK A01 T00980031  RH  064%=      5-min Rain = 0
KHRS 081210Z 26013KT 10/03 A299 RMK A01 T00990031  RH  063%=      5-min Rain = 0
KHRS 081215Z 25017KT 10/03 A2989 RMK A01 T01010031  RH  062%=      5-min Rain = 0
KHRS 081220Z 25015G22KT 10/03 A2989 RMK A01 T01020031  RH  062%=      5-min Rain = 0
KHRS 081225Z 25016G21KT 10/03 A2989 RMK A01 T01040029  RH  061%=      5-min Rain = 0
KHRS 081230Z 27013G18KT 11/03 A2989 RMK A01 T01060030  RH  060%=      5-min Rain = 0
KHRS 081235Z 28013KT 10/03 A299 RMK A01 T01030030  RH  061%=      5-min Rain = 0
KHRS 081240Z 27013KT 10/03 A299 RMK A01 T01010030  RH  062%=      5-min Rain = 0
KHRS 081245Z 27013KT 10/03 A2989 RMK A01 T01010030  RH  062%=      5-min Rain = 0
KHRS 081250Z 26014KT 10/03 A2989 RMK A01 T01010030  RH  062%=      5-min Rain = 0
KHRS 081255Z 26014KT 10/03 A2989 RMK A01 T01010030  RH  062%=      5-min Rain = 0
KHRS 081300Z 26013KT 10/03 A2989 RMK A01 T01000031  RH  063%=      5-min Rain = 0
KHRS 081305Z 26013KT 10/03 A2989 RMK A01 T01000032  RH  063%=      5-min Rain = 0
KHRS 081310Z 26013KT 10/03 A2989 RMK A01 T01010032  RH  063%=      5-min Rain = 0
KHRS 081315Z 26014KT 10/03 A2989 RMK A01 T01040032  RH  062%=      5-min Rain = 0
KHRS 081320Z 26014KT 11/03 A2989 RMK A01 T01070032  RH  060%=      5-min Rain = 0
KHRS 081325Z 26013KT 11/03 A2989 RMK A01 T01090032  RH  060%=      5-min Rain = 0
KHRS 081330Z 26013KT 11/03 A2989 RMK A01 T01080033  RH  060%=      5-min Rain = 0
KHRS 081335Z 26015KT 11/03 A2989 RMK A01 T01110034  RH  060%=      5-min Rain = 0
KHRS 081340Z 26015KT 11/03 A2989 RMK A01 T01120034  RH  060%=      5-min Rain = 0
KHRS 081345Z 26015KT 11/04 A2989 RMK A01 T01120035  RH  060%=      5-min Rain = 0
KHRS 081350Z 26014KT 11/04 A2989 RMK A01 T01110036  RH  060%=      5-min Rain = 0
KHRS 081355Z 26013KT 11/04 A2989 RMK A01 T01120036  RH  060%=      5-min Rain = 0
KHRS 081400Z 26014KT 11/04 A2989 RMK A01 T01130037  RH  060%=      5-min Rain = 0
KHRS 081405Z 26014KT 11/04 A2989 RMK A01 T01140037  RH  060%=      5-min Rain = 0
KHRS 081410Z 26017KT 12/04 A2989 RMK A01 T01150037  RH  059%=      5-min Rain = 0
KHRS 081415Z 26017KT 12/04 A2989 RMK A01 T01180036  RH  058%=      5-min Rain = 0
KHRS 081420Z 26016G21KT 12/04 A2989 RMK A01 T01190037  RH  058%=      5-min Rain = 0
KHRS 081425Z 25020G27KT 12/04 A2988 RMK A01 T01200036  RH  057%=      5-min Rain = 0
KHRS 081430Z 25020G27KT 12/04 A2988 RMK A01 T01190036  RH  058%=      5-min Rain = 0
KHRS 081435Z 25022G28KT 12/04 A2988 RMK A01 T01190037  RH  058%=      5-min Rain = 0
KHRS 081440Z 25023G31KT 12/04 A2987 RMK A01 T01190037  RH  058%=      5-min Rain = 0
KHRS 081445Z 25025G31KT 12/04 A2987 RMK A01 T01200037  RH  058%=      5-min Rain = 0
KHRS 081450Z 25024G29KT 12/04 A2987 RMK A01 T01200038  RH  058%=      5-min Rain = 0
KHRS 081455Z 25023G30KT 12/04 A2987 RMK A01 T01190038  RH  058%=      5-min Rain = 0
KHRS 081500Z 26023G28KT 12/04 A2988 RMK A01 T01180038  RH  059%=      5-min Rain = 0
KHRS 081505Z 26024G31KT 12/04 A2988 RMK A01 T01190039  RH  059%=      5-min Rain = 0
KHRS 081510Z 26024G29KT 12/04 A2988 RMK A01 T01190039  RH  058%=      5-min Rain = 0
KHRS 081515Z 26021G27KT 12/04 A2988 RMK A01 T01190039  RH  059%=      5-min Rain = 0
KHRS 081520Z 26021G26KT 12/04 A2988 RMK A01 T01190040  RH  059%=      5-min Rain = 0
KHRS 081525Z 25020G26KT 12/04 A2988 RMK A01 T01190041  RH  059%=      5-min Rain = 0
KHRS 081530Z 25021G26KT 12/04 A2989 RMK A01 T01190042  RH  060%=      5-min Rain = 0
KHRS 081535Z 25020G25KT 12/04 A2989 RMK A01 T01180042  RH  061%=      5-min Rain = 0
KHRS 081540Z 25020KT 12/04 A2989 RMK A01 T01180043  RH  061%=      5-min Rain = 0
KHRS 081545Z 25019G26KT 12/04 A2989 RMK A01 T01190043  RH  061%=      5-min Rain = 0
KHRS 081550Z 25019G25KT 12/04 A2989 RMK A01 T01200043  RH  060%=      5-min Rain = 0
KHRS 081555Z 25017G22KT 12/05 A2989 RMK A01 T01220045  RH  060%=      5-min Rain = 0
KHRS 081600Z 25017G22KT 13/05 A2988 RMK A01 T01260046  RH  059%=      5-min Rain = 0
KHRS 081605Z 25016KT 13/05 A2989 RMK A01 T01290046  RH  058%=      5-min Rain = 0
KHRS 081610Z 25018KT 13/05 A2989 RMK A01 T01320045  RH  057%=      5-min Rain = 0
KHRS 081615Z 25018G23KT 13/05 A2989 RMK A01 T01320045  RH  056%=      5-min Rain = 0
KHRS 081620Z 26019G24KT 13/05 A2988 RMK A01 T01340047  RH  056%=      5-min Rain = 0
KHRS 081625Z 25019G24KT 14/05 A2988 RMK A01 T01350047  RH  056%=      5-min Rain = 0
KHRS 081630Z 25018G24KT 13/05 A2988 RMK A01 T01340047  RH  057%=      5-min Rain = 0
KHRS 081635Z 25019G24KT 13/05 A2988 RMK A01 T01340047  RH  056%=      5-min Rain = 0
KHRS 081640Z 25018G23KT 13/05 A2988 RMK A01 T01340048  RH  057%=      5-min Rain = 0
KHRS 081645Z 25017KT 14/05 A2988 RMK A01 T01350048  RH  056%=      5-min Rain = 0
KHRS 081650Z 25017KT 14/05 A2988 RMK A01 T01370049  RH  056%=      5-min Rain = 0
KHRS 081655Z 24015G21KT 14/05 A2988 RMK A01 T01380049  RH  056%=      5-min Rain = 0
KHRS 081700Z 24018G24KT 14/05 A2988 RMK A01 T01380050  RH  056%=      5-min Rain = 0
KHRS 081705Z 25020KT 14/05 A2987 RMK A01 T01400051  RH  056%=      5-min Rain = 0
KHRS 081710Z 25021G27KT 14/05 A2987 RMK A01 T01440050  RH  054%=      5-min Rain = 0
KHRS 081715Z 25019G24KT 15/05 A2987 RMK A01 T01480051  RH  053%=      5-min Rain = 0
KHRS 081720Z 26018G23KT 15/05 A2986 RMK A01 T01490052  RH  053%=      5-min Rain = 0
KHRS 081725Z 25024G33KT 15/05 A2986 RMK A01 T01500051  RH  052%=      5-min Rain = 0
KHRS 081730Z 25023G33KT 15/05 A2985 RMK A01 T01530052  RH  051%=      5-min Rain = 0
KHRS 081735Z 25025G31KT 15/05 A2985 RMK A01 T01540051  RH  051%=      5-min Rain = 0
KHRS 081740Z 25023G29KT 16/05 A2985 RMK A01 T01570050  RH  050%=      5-min Rain = 0
KHRS 081745Z 26025G33KT 16/05 A2985 RMK A01 T01610049  RH  048%=      5-min Rain = 0
KHRS 081750Z 25025G33KT 17/05 A2985 RMK A01 T01650049  RH  047%=      5-min Rain = 0
KHRS 081755Z 25027G35KT 16/05 A2984 RMK A01 T01640045  RH  046%=      5-min Rain = 0
KHRS 081800Z 25027G34KT 16/05 A2984 RMK A01 T01640045  RH  046%=      5-min Rain = 0
KHRS 081805Z 26027G33KT 17/05 A2983 RMK A01 T01680045  RH  045%=      5-min Rain = 0
KHRS 081810Z 26028G37KT 17/05 A2983 RMK A01 T01710046  RH  044%=      5-min Rain = 0
KHRS 081815Z 26026G34KT 17/05 A2983 RMK A01 T01740046  RH  043%=      5-min Rain = 0
KHRS 081820Z 25027KT 18/05 A2983 RMK A01 T01750046  RH  043%=      5-min Rain = 0
KHRS 081825Z 26025G34KT 18/04 A2983 RMK A01 T01750044  RH  042%=      5-min Rain = 0
KHRS 081830Z 27025G30KT 18/05 A2983 RMK A01 T01750045  RH  043%=      5-min Rain = 0
KHRS 081835Z 26021G27KT 18/05 A2982 RMK A01 T01800048  RH  042%=      5-min Rain = 0
KHRS 081840Z 26026G36KT 18/04 A2982 RMK A01 T01810043  RH  041%=      5-min Rain = 0
KHRS 081845Z 26027G35KT 18/04 A2982 RMK A01 T01790044  RH  041%=      5-min Rain = 0
KHRS 081850Z 25025G32KT 18/04 A2982 RMK A01 T01780043  RH  041%=      5-min Rain = 0
KHRS 081855Z 25026G33KT 18/04 A2981 RMK A01 T01780043  RH  041%=      5-min Rain = 0
KHRS 081900Z 25026G35KT 18/05 A2981 RMK A01 T01810045  RH  041%=      5-min Rain = 0
KHRS 081905Z 25024G30KT 18/05 A2981 RMK A01 T01810045  RH  041%=      5-min Rain = 0
KHRS 081910Z 25026G34KT 18/04 A2981 RMK A01 T01800044  RH  041%=      5-min Rain = 0
KHRS 081915Z 25028G34KT 18/04 A2981 RMK A01 T01820043  RH  040%=      5-min Rain = 0
KHRS 081920Z 25026G34KT 18/04 A2981 RMK A01 T01820043  RH  040%=      5-min Rain = 0
KHRS 081925Z 26025G31KT 19/04 A298 RMK A01 T01850043  RH  040%=      5-min Rain = 0
KHRS 081930Z 25024G33KT 19/04 A298 RMK A01 T01870043  RH  039%=      5-min Rain = 0
KHRS 081935Z 25026G32KT 19/04 A2979 RMK A01 T01880042  RH  039%=      5-min Rain = 0
KHRS 081940Z 25028G37KT 19/04 A2979 RMK A01 T01880040  RH  038%=      5-min Rain = 0
KHRS 081945Z 25028G35KT 19/04 A2979 RMK A01 T01870039  RH  038%=      5-min Rain = 0
KHRS 081950Z 25026G32KT 19/04 A2979 RMK A01 T01880041  RH  038%=      5-min Rain = 0
KHRS 081955Z 25028G34KT 19/04 A2979 RMK A01 T01890040  RH  038%=      5-min Rain = 0
KHRS 082000Z 25028G33KT 19/04 A2979 RMK A01 T01880041  RH  038%=      5-min Rain = 0
KHRS 082005Z 25026G34KT 19/04 A2979 RMK A01 T01890043  RH  039%=      5-min Rain = 0
KHRS 082010Z 25025G35KT 19/04 A2979 RMK A01 T01900044  RH  039%=      5-min Rain = 0
KHRS 082015Z 25026G36KT 19/04 A2979 RMK A01 T01940044  RH  038%=      5-min Rain = 0
KHRS 082020Z 25031G38KT 20/04 A2978 RMK A01 T01950040  RH  036%=      5-min Rain = 0
KHRS 082025Z 25030G41KT 20/04 A2978 RMK A01 T01960042  RH  037%=      5-min Rain = 0
KHRS 082030Z 25029G37KT 20/04 A2978 RMK A01 T01950043  RH  037%=      5-min Rain = 0
KHRS 082035Z 25031G39KT 19/04 A2978 RMK A01 T01930042  RH  037%=      5-min Rain = 0
KHRS 082040Z 25029G37KT 19/04 A2978 RMK A01 T01910041  RH  037%=      5-min Rain = 0
KHRS 082045Z 25032G39KT 19/04 A2977 RMK A01 T01910039  RH  037%=      5-min Rain = 0
KHRS 082050Z 26030G37KT 19/04 A2977 RMK A01 T01900038  RH  037%=      5-min Rain = 0
KHRS 082055Z 26030G37KT 19/04 A2978 RMK A01 T01930039  RH  037%=      5-min Rain = 0
KHRS 082100Z 26030G36KT 19/04 A2977 RMK A01 T01900040  RH  038%=      5-min Rain = 0
KHRS 082105Z 26031G40KT 19/04 A2977 RMK A01 T01890040  RH  038%=      5-min Rain = 0
KHRS 082110Z 26030G36KT 19/04 A2977 RMK A01 T01870040  RH  038%=      5-min Rain = 0
KHRS 082115Z 25026G34KT 19/04 A2978 RMK A01 T01870044  RH  039%=      5-min Rain = 0
KHRS 082120Z 25027G33KT 19/04 A2977 RMK A01 T01880044  RH  039%=      5-min Rain = 0
KHRS 082125Z 25025G34KT 19/05 A2977 RMK A01 T01880046  RH  040%=      5-min Rain = 0
KHRS 082130Z 25027G35KT 19/05 A2977 RMK A01 T01890045  RH  039%=      5-min Rain = 0
KHRS 082135Z 25029G37KT 19/04 A2976 RMK A01 T01890041  RH  038%=      5-min Rain = 0
KHRS 082140Z 25027G37KT 19/04 A2976 RMK A01 T01880040  RH  038%=      5-min Rain = 0
KHRS 082145Z 25030G36KT 19/04 A2976 RMK A01 T01870039  RH  038%=      5-min Rain = 0
KHRS 082150Z 25024G32KT 19/04 A2977 RMK A01 T01860043  RH  039%=      5-min Rain = 0
KHRS 082155Z 26025G34KT 19/04 A2976 RMK A01 T01850042  RH  039%=      5-min Rain = 0
KHRS 082200Z 25027G34KT 19/04 A2977 RMK A01 T01860040  RH  038%=      5-min Rain = 0
KHRS 082205Z 26023G31KT 19/04 A2977 RMK A01 T01850041  RH  039%=      5-min Rain = 0
KHRS 082210Z 26022G27KT 18/04 A2977 RMK A01 T01840042  RH  040%=      5-min Rain = 0
KHRS 082215Z 26026G37KT 18/04 A2977 RMK A01 T01840039  RH  039%=      5-min Rain = 0
KHRS 082220Z 25026G35KT 18/04 A2978 RMK A01 T01840039  RH  039%=      5-min Rain = 0
KHRS 082225Z 25026G34KT 18/04 A2978 RMK A01 T01830039  RH  039%=      5-min Rain = 0
KHRS 082230Z 25025G33KT 18/04 A2978 RMK A01 T01820039  RH  039%=      5-min Rain = 0
KHRS 082235Z 25026G35KT 18/04 A2978 RMK A01 T01800037  RH  039%=      5-min Rain = 0
KHRS 082240Z 25024G32KT 18/04 A2978 RMK A01 T01770038  RH  040%=      5-min Rain = 0
KHRS 082245Z 25027G36KT 18/04 A2978 RMK A01 T01750037  RH  040%=      5-min Rain = 0
KHRS 082250Z 25025G31KT 17/04 A2978 RMK A01 T01740038  RH  041%=      5-min Rain = 0
KHRS 082255Z 25023G29KT 17/04 A2978 RMK A01 T01720038  RH  042%=      5-min Rain = 0
KHRS 082300Z 25022G30KT 17/04 A2979 RMK A01 T01690039  RH  042%=      5-min Rain = 0
KHRS 082305Z 25022G29KT 17/04 A2978 RMK A01 T01690039  RH  042%=      5-min Rain = 0
KHRS 082310Z 25022G29KT 17/04 A2978 RMK A01 T01670039  RH  043%=      5-min Rain = 0
KHRS 082315Z 25020G26KT 17/04 A2979 RMK A01 T01660040  RH  044%=      5-min Rain = 0
KHRS 082320Z 25019KT 16/04 A2979 RMK A01 T01630041  RH  045%=      5-min Rain = 0
KHRS 082325Z 25018KT 16/04 A2978 RMK A01 T01610042  RH  046%=      5-min Rain = 0
KHRS 082330Z 25017G25KT 16/04 A2979 RMK A01 T01580042  RH  046%=      5-min Rain = 0
KHRS 082335Z 25018KT 16/04 A2979 RMK A01 T01570041  RH  047%=      5-min Rain = 0
KHRS 082340Z 26018G23KT 16/04 A2979 RMK A01 T01550041  RH  047%=      5-min Rain = 0
KHRS 082345Z 26021G27KT 16/04 A2979 RMK A01 T01570040  RH  046%=      5-min Rain = 0
KHRS 082350Z 26019G24KT 16/04 A2979 RMK A01 T01570040  RH  046%=      5-min Rain = 0
KHRS 082355Z 26018KT 16/04 A2979 RMK A01 T01550039  RH  047%=      5-min Rain = 0
KHRS 090000Z 26018G24KT 15/04 A2979 RMK A01 T01530039  RH  047%=      5-min Rain = 0
KHRS 090005Z 26019G24KT 15/04 A2979 RMK A01 T01520038  RH  047%=      5-min Rain = 0
KHRS 090010Z 26018G25KT 15/04 A2979 RMK A01 T01510039  RH  048%=      5-min Rain = 0
KHRS 090015Z 26018KT 15/04 A298 RMK A01 T01490039  RH  048%=      5-min Rain = 0
KHRS 090020Z 26016G22KT 15/04 A298 RMK A01 T01470039  RH  049%=      5-min Rain = 0
KHRS 090025Z 25015KT 14/04 A298 RMK A01 T01430040  RH  050%=      5-min Rain = 0
KHRS 090030Z 25014G19KT 14/04 A298 RMK A01 T01400040  RH  051%=      5-min Rain = 0
KHRS 090035Z 25015KT 14/04 A298 RMK A01 T01390040  RH  052%=      5-min Rain = 0
KHRS 090040Z 25015KT 14/04 A298 RMK A01 T01390041  RH  052%=      5-min Rain = 0
KHRS 090045Z 25014G20KT 14/04 A298 RMK A01 T01380041  RH  053%=      5-min Rain = 0
KHRS 090050Z 24016G22KT 14/04 A298 RMK A01 T01390041  RH  052%=      5-min Rain = 0
KHRS 090055Z 25017KT 14/04 A298 RMK A01 T01400041  RH  052%=      5-min Rain = 0
KHRS 090100Z 25016G21KT 14/04 A298 RMK A01 T01370042  RH  053%=      5-min Rain = 0
KHRS 090105Z 25016G21KT 14/04 A2981 RMK A01 T01360042  RH  054%=      5-min Rain = 0
KHRS 090110Z 25016G21KT 13/04 A2981 RMK A01 T01340042  RH  054%=      5-min Rain = 0
KHRS 090115Z 25018G24KT 13/04 A298 RMK A01 T01330043  RH  055%=      5-min Rain = 0
KHRS 090120Z 25019G26KT 13/04 A298 RMK A01 T01320042  RH  055%=      5-min Rain = 0
KHRS 090125Z 25022G28KT 13/04 A298 RMK A01 T01340040  RH  054%=      5-min Rain = 0
KHRS 090130Z 26020G25KT 13/04 A298 RMK A01 T01320040  RH  054%=      5-min Rain = 0
KHRS 090135Z 26018G24KT 13/04 A298 RMK A01 T01290040  RH  056%=      5-min Rain = 0
KHRS 090140Z 25017G22KT 13/04 A298 RMK A01 T01260040  RH  057%=      5-min Rain = 0
KHRS 090145Z 25016G22KT 12/04 A298 RMK A01 T01230040  RH  058%=      5-min Rain = 0
KHRS 090150Z 25017G22KT 12/04 A2981 RMK A01 T01220040  RH  058%=      5-min Rain = 0
KHRS 090155Z 25019G25KT 12/04 A2981 RMK A01 T01230040  RH  058%=      5-min Rain = 0
KHRS 090200Z 24023G30KT 13/04 A298 RMK A01 T01250037  RH  056%=      5-min Rain = 0
KHRS 090205Z 24023G30KT 13/03 A298 RMK A01 T01280033  RH  053%=      5-min Rain = 0
KHRS 090210Z 24020G27KT 13/03 A298 RMK A01 T01280031  RH  052%=      5-min Rain = 0
KHRS 090215Z 24019G25KT 13/03 A298 RMK A01 T01260031  RH  053%=      5-min Rain = 0
KHRS 090220Z 24021G31KT 13/03 A298 RMK A01 T01250031  RH  053%=      5-min Rain = 0
KHRS 090225Z 24020G25KT 12/03 A298 RMK A01 T01230031  RH  054%=      5-min Rain = 0
KHRS 090230Z 25021G28KT 12/03 A2979 RMK A01 T01220029  RH  054%=      5-min Rain = 0
KHRS 090235Z 25020G26KT 12/03 A2979 RMK A01 T01200027  RH  054%=      5-min Rain = 0
KHRS 090240Z 25019KT 12/03 A298 RMK A01 T01170027  RH  055%=      5-min Rain = 0
KHRS 090245Z 25019KT 12/03 A298 RMK A01 T01150028  RH  056%=      5-min Rain = 0
KHRS 090250Z 25017KT 11/03 A298 RMK A01 T01120029  RH  057%=      5-min Rain = 0
KHRS 090255Z 25017G22KT 11/03 A298 RMK A01 T01110029  RH  058%=      5-min Rain = 0
KHRS 090300Z 25017G22KT 11/03 A298 RMK A01 T01100029  RH  058%=      5-min Rain = 0
KHRS 090305Z 25019KT 11/03 A298 RMK A01 T01090030  RH  059%=      5-min Rain = 0
KHRS 090310Z 25018KT 11/03 A2981 RMK A01 T01090031  RH  059%=      5-min Rain = 0
KHRS 090315Z 25016KT 11/03 A2981 RMK A01 T01060031  RH  061%=      5-min Rain = 0
KHRS 090320Z 26016KT 11/03 A2981 RMK A01 T01050032  RH  061%=      5-min Rain = 0
KHRS 090325Z 25016KT 10/03 A2981 RMK A01 T01040032  RH  062%=      5-min Rain = 0
KHRS 090330Z 25017KT 10/03 A298 RMK A01 T01040033  RH  062%=      5-min Rain = 0
KHRS 090335Z 25017KT 10/03 A2981 RMK A01 T01040033  RH  062%=      5-min Rain = 0
KHRS 090340Z 25016G22KT 10/03 A2981 RMK A01 T01030033  RH  063%=      5-min Rain = 0
KHRS 090345Z 25016KT 10/03 A298 RMK A01 T01030034  RH  063%=      5-min Rain = 0
KHRS 090350Z 25016KT 10/04 A298 RMK A01 T01010035  RH  064%=      5-min Rain = 0
KHRS 090355Z 26015KT 10/04 A298 RMK A01 T01000035  RH  065%=      5-min Rain = 0
KHRS 090400Z 25015KT 10/04 A2979 RMK A01 T01000036  RH  065%=      5-min Rain = 0
KHRS 090405Z 25015KT 10/04 A2979 RMK A01 T00990037  RH  066%=      5-min Rain = 0
KHRS 090410Z 25015KT 10/04 A298 RMK A01 T00990037  RH  066%=      5-min Rain = 0
KHRS 090415Z 25014KT 10/04 A298 RMK A01 T00970037  RH  067%=      5-min Rain = 0
KHRS 090420Z 25012KT 10/04 A298 RMK A01 T00970038  RH  068%=      5-min Rain = 0
KHRS 090425Z 25013KT 10/04 A298 RMK A01 T00960039  RH  068%=      5-min Rain = 0
KHRS 090430Z 25014KT 10/04 A298 RMK A01 T00960040  RH  069%=      5-min Rain = 0
KHRS 090435Z 25014G19KT 10/04 A298 RMK A01 T00950039  RH  069%=      5-min Rain = 0
KHRS 090440Z 25013KT 09/04 A298 RMK A01 T00940039  RH  070%=      5-min Rain = 0
KHRS 090445Z 25012KT 09/04 A298 RMK A01 T00920039  RH  070%=      5-min Rain = 0
KHRS 090450Z 25012KT 09/04 A298 RMK A01 T00910039  RH  071%=      5-min Rain = 0
KHRS 090455Z 24013KT 09/04 A298 RMK A01 T00910039  RH  071%=      5-min Rain = 0
KHRS 090500Z 24013KT 09/04 A298 RMK A01 T00910039  RH  071%=      5-min Rain = 0
KHRS 090505Z 24014KT 09/04 A2981 RMK A01 T00900039  RH  071%=      5-min Rain = 0
KHRS 090510Z 25014KT 09/04 A2981 RMK A01 T00900039  RH  071%=      5-min Rain = 0
KHRS 090515Z 25013KT 09/04 A298 RMK A01 T00880038  RH  072%=      5-min Rain = 0
KHRS 090520Z 25012KT 09/04 A298 RMK A01 T00850038  RH  073%=      5-min Rain = 0
KHRS 090525Z 26012KT 08/04 A298 RMK A01 T00840038  RH  074%=      5-min Rain = 0
KHRS 090530Z 26011KT 08/04 A298 RMK A01 T00820037  RH  074%=      5-min Rain = 0
KHRS 090535Z 26012KT 08/04 A2979 RMK A01 T00800037  RH  075%=      5-min Rain = 0
KHRS 090540Z 25013KT 08/04 A298 RMK A01 T00800037  RH  075%=      5-min Rain = 0
KHRS 090545Z 25013KT 08/04 A2979 RMK A01 T00800036  RH  075%=      5-min Rain = 0
KHRS 090550Z 25013KT 08/04 A2979 RMK A01 T00810036  RH  074%=      5-min Rain = 0
KHRS 090555Z 25014KT 08/04 A298 RMK A01 T00810035  RH  074%=      5-min Rain = 0

Page generated in 0.0096 seconds.